sensor_id;sensor_type;location;lat;lon;timestamp;P1;durP1;ratioP1;P2;durP2;ratioP2
5225;SDS011;2632;51.666;7.146;2022-08-25T00:01:41;4.33;;;3.17;;
5225;SDS011;2632;51.666;7.146;2022-08-25T00:04:12;3.83;;;3.40;;
5225;SDS011;2632;51.666;7.146;2022-08-25T00:06:40;4.00;;;3.20;;
5225;SDS011;2632;51.666;7.146;2022-08-25T00:09:09;4.27;;;3.30;;
5225;SDS011;2632;51.666;7.146;2022-08-25T00:11:37;4.50;;;3.80;;
5225;SDS011;2632;51.666;7.146;2022-08-25T00:14:07;3.50;;;3.20;;
5225;SDS011;2632;51.666;7.146;2022-08-25T00:16:36;4.60;;;3.50;;
5225;SDS011;2632;51.666;7.146;2022-08-25T00:19:05;3.57;;;3.27;;
5225;SDS011;2632;51.666;7.146;2022-08-25T00:21:35;6.30;;;3.23;;
5225;SDS011;2632;51.666;7.146;2022-08-25T00:24:02;3.80;;;3.33;;
5225;SDS011;2632;51.666;7.146;2022-08-25T00:26:29;5.47;;;4.07;;
5225;SDS011;2632;51.666;7.146;2022-08-25T00:28:56;4.40;;;3.67;;
5225;SDS011;2632;51.666;7.146;2022-08-25T00:31:27;4.20;;;3.23;;
5225;SDS011;2632;51.666;7.146;2022-08-25T00:34:04;4.80;;;3.77;;
5225;SDS011;2632;51.666;7.146;2022-08-25T00:36:33;3.60;;;3.30;;
5225;SDS011;2632;51.666;7.146;2022-08-25T00:39:00;3.90;;;3.50;;
5225;SDS011;2632;51.666;7.146;2022-08-25T00:41:27;4.30;;;3.53;;
5225;SDS011;2632;51.666;7.146;2022-08-25T00:43:55;3.30;;;3.00;;
5225;SDS011;2632;51.666;7.146;2022-08-25T00:46:31;4.40;;;3.50;;
5225;SDS011;2632;51.666;7.146;2022-08-25T00:49:06;3.77;;;3.37;;
5225;SDS011;2632;51.666;7.146;2022-08-25T00:51:53;4.13;;;3.00;;
5225;SDS011;2632;51.666;7.146;2022-08-25T00:54:27;5.20;;;3.50;;
5225;SDS011;2632;51.666;7.146;2022-08-25T00:56:58;5.47;;;3.63;;
5225;SDS011;2632;51.666;7.146;2022-08-25T00:59:26;3.50;;;3.20;;
5225;SDS011;2632;51.666;7.146;2022-08-25T01:01:53;4.07;;;3.77;;
5225;SDS011;2632;51.666;7.146;2022-08-25T01:04:21;4.87;;;3.87;;
5225;SDS011;2632;51.666;7.146;2022-08-25T01:06:47;6.50;;;3.67;;
5225;SDS011;2632;51.666;7.146;2022-08-25T01:09:14;3.53;;;3.23;;
5225;SDS011;2632;51.666;7.146;2022-08-25T01:11:41;3.80;;;3.33;;
5225;SDS011;2632;51.666;7.146;2022-08-25T01:14:10;5.37;;;3.50;;
5225;SDS011;2632;51.666;7.146;2022-08-25T01:16:40;4.40;;;3.70;;
5225;SDS011;2632;51.666;7.146;2022-08-25T01:19:09;4.33;;;3.27;;
5225;SDS011;2632;51.666;7.146;2022-08-25T01:21:45;4.00;;;3.33;;
5225;SDS011;2632;51.666;7.146;2022-08-25T01:27:06;4.13;;;3.73;;
5225;SDS011;2632;51.666;7.146;2022-08-25T01:29:33;4.30;;;3.37;;
5225;SDS011;2632;51.666;7.146;2022-08-25T01:32:02;4.03;;;3.70;;
5225;SDS011;2632;51.666;7.146;2022-08-25T01:34:32;6.80;;;4.37;;
5225;SDS011;2632;51.666;7.146;2022-08-25T01:37:03;4.73;;;3.80;;
5225;SDS011;2632;51.666;7.146;2022-08-25T01:39:30;5.57;;;3.87;;
5225;SDS011;2632;51.666;7.146;2022-08-25T01:42:28;4.70;;;3.90;;
5225;SDS011;2632;51.666;7.146;2022-08-25T01:44:58;4.47;;;3.13;;
5225;SDS011;2632;51.666;7.146;2022-08-25T01:47:25;4.10;;;3.70;;
5225;SDS011;2632;51.666;7.146;2022-08-25T01:49:51;4.23;;;3.50;;
5225;SDS011;2632;51.666;7.146;2022-08-25T01:52:20;16.43;;;3.70;;
5225;SDS011;2632;51.666;7.146;2022-08-25T01:54:50;3.60;;;3.30;;
5225;SDS011;2632;51.666;7.146;2022-08-25T01:57:17;5.10;;;4.07;;
5225;SDS011;2632;51.666;7.146;2022-08-25T01:59:44;3.67;;;3.30;;
5225;SDS011;2632;51.666;7.146;2022-08-25T02:02:10;3.70;;;3.40;;
5225;SDS011;2632;51.666;7.146;2022-08-25T02:04:37;4.03;;;3.43;;
5225;SDS011;2632;51.666;7.146;2022-08-25T02:07:06;5.30;;;3.90;;
5225;SDS011;2632;51.666;7.146;2022-08-25T02:09:34;4.77;;;3.47;;
5225;SDS011;2632;51.666;7.146;2022-08-25T02:12:02;3.97;;;3.57;;
5225;SDS011;2632;51.666;7.146;2022-08-25T02:14:29;3.97;;;3.60;;
5225;SDS011;2632;51.666;7.146;2022-08-25T02:16:55;4.40;;;3.47;;
5225;SDS011;2632;51.666;7.146;2022-08-25T02:19:23;5.10;;;3.57;;
5225;SDS011;2632;51.666;7.146;2022-08-25T02:21:51;4.83;;;3.67;;
5225;SDS011;2632;51.666;7.146;2022-08-25T02:24:18;4.83;;;3.60;;
5225;SDS011;2632;51.666;7.146;2022-08-25T02:26:44;3.90;;;3.40;;
5225;SDS011;2632;51.666;7.146;2022-08-25T02:29:11;3.60;;;3.30;;
5225;SDS011;2632;51.666;7.146;2022-08-25T02:31:38;5.03;;;3.30;;
5225;SDS011;2632;51.666;7.146;2022-08-25T02:34:06;4.50;;;4.10;;
5225;SDS011;2632;51.666;7.146;2022-08-25T02:36:34;3.27;;;2.97;;
5225;SDS011;2632;51.666;7.146;2022-08-25T02:39:03;7.07;;;3.77;;
5225;SDS011;2632;51.666;7.146;2022-08-25T02:41:31;5.90;;;3.80;;
5225;SDS011;2632;51.666;7.146;2022-08-25T02:43:58;7.00;;;3.80;;
5225;SDS011;2632;51.666;7.146;2022-08-25T02:50:07;5.37;;;3.87;;
5225;SDS011;2632;51.666;7.146;2022-08-25T02:52:34;4.90;;;3.43;;
5225;SDS011;2632;51.666;7.146;2022-08-25T02:55:03;6.07;;;3.80;;
5225;SDS011;2632;51.666;7.146;2022-08-25T02:57:31;4.33;;;3.70;;
5225;SDS011;2632;51.666;7.146;2022-08-25T02:59:57;4.00;;;3.60;;
5225;SDS011;2632;51.666;7.146;2022-08-25T03:02:25;7.37;;;3.60;;
5225;SDS011;2632;51.666;7.146;2022-08-25T03:04:52;4.10;;;3.70;;
5225;SDS011;2632;51.666;7.146;2022-08-25T03:07:20;7.00;;;4.10;;
5225;SDS011;2632;51.666;7.146;2022-08-25T03:09:49;5.20;;;4.07;;
5225;SDS011;2632;51.666;7.146;2022-08-25T03:12:16;5.87;;;3.80;;
5225;SDS011;2632;51.666;7.146;2022-08-25T03:14:43;6.50;;;4.50;;
5225;SDS011;2632;51.666;7.146;2022-08-25T03:17:11;8.60;;;3.90;;
5225;SDS011;2632;51.666;7.146;2022-08-25T03:19:38;5.00;;;3.67;;
5225;SDS011;2632;51.666;7.146;2022-08-25T03:22:05;6.63;;;4.00;;
5225;SDS011;2632;51.666;7.146;2022-08-25T03:24:31;4.53;;;3.70;;
5225;SDS011;2632;51.666;7.146;2022-08-25T03:26:58;6.30;;;4.33;;
5225;SDS011;2632;51.666;7.146;2022-08-25T03:29:26;5.30;;;3.83;;
5225;SDS011;2632;51.666;7.146;2022-08-25T03:31:55;6.57;;;3.97;;
5225;SDS011;2632;51.666;7.146;2022-08-25T03:34:27;4.80;;;3.97;;
5225;SDS011;2632;51.666;7.146;2022-08-25T03:36:55;4.83;;;3.60;;
5225;SDS011;2632;51.666;7.146;2022-08-25T03:39:23;4.30;;;3.60;;
5225;SDS011;2632;51.666;7.146;2022-08-25T03:41:51;7.70;;;4.00;;
5225;SDS011;2632;51.666;7.146;2022-08-25T03:44:19;6.90;;;4.30;;
5225;SDS011;2632;51.666;7.146;2022-08-25T03:46:47;3.80;;;3.40;;
5225;SDS011;2632;51.666;7.146;2022-08-25T03:49:17;4.13;;;3.70;;
5225;SDS011;2632;51.666;7.146;2022-08-25T03:51:46;5.17;;;4.00;;
5225;SDS011;2632;51.666;7.146;2022-08-25T03:54:16;4.90;;;3.73;;
5225;SDS011;2632;51.666;7.146;2022-08-25T03:56:45;4.70;;;4.20;;
5225;SDS011;2632;51.666;7.146;2022-08-25T03:59:12;3.90;;;3.57;;
5225;SDS011;2632;51.666;7.146;2022-08-25T04:01:39;4.80;;;3.90;;
5225;SDS011;2632;51.666;7.146;2022-08-25T04:04:08;4.40;;;3.60;;
5225;SDS011;2632;51.666;7.146;2022-08-25T04:06:37;4.30;;;3.83;;
5225;SDS011;2632;51.666;7.146;2022-08-25T04:09:04;4.00;;;3.60;;
5225;SDS011;2632;51.666;7.146;2022-08-25T04:11:31;5.47;;;4.00;;
5225;SDS011;2632;51.666;7.146;2022-08-25T04:13:58;6.70;;;3.27;;
5225;SDS011;2632;51.666;7.146;2022-08-25T04:16:27;4.30;;;3.57;;
5225;SDS011;2632;51.666;7.146;2022-08-25T04:18:57;5.33;;;4.23;;
5225;SDS011;2632;51.666;7.146;2022-08-25T04:21:25;5.07;;;3.60;;
5225;SDS011;2632;51.666;7.146;2022-08-25T04:23:52;4.13;;;3.70;;
5225;SDS011;2632;51.666;7.146;2022-08-25T04:26:24;4.00;;;3.60;;
5225;SDS011;2632;51.666;7.146;2022-08-25T04:28:55;6.93;;;4.57;;
5225;SDS011;2632;51.666;7.146;2022-08-25T04:31:23;5.03;;;3.90;;
5225;SDS011;2632;51.666;7.146;2022-08-25T04:33:50;7.13;;;4.17;;
5225;SDS011;2632;51.666;7.146;2022-08-25T04:36:17;5.30;;;4.30;;
5225;SDS011;2632;51.666;7.146;2022-08-25T04:38:45;4.53;;;4.13;;
5225;SDS011;2632;51.666;7.146;2022-08-25T04:41:13;4.10;;;3.70;;
5225;SDS011;2632;51.666;7.146;2022-08-25T04:43:42;7.70;;;4.50;;
5225;SDS011;2632;51.666;7.146;2022-08-25T04:46:13;6.20;;;4.20;;
5225;SDS011;2632;51.666;7.146;2022-08-25T04:48:46;4.40;;;4.00;;
5225;SDS011;2632;51.666;7.146;2022-08-25T04:51:15;5.00;;;4.43;;
5225;SDS011;2632;51.666;7.146;2022-08-25T04:53:43;4.47;;;4.07;;
5225;SDS011;2632;51.666;7.146;2022-08-25T04:56:12;7.83;;;4.40;;
5225;SDS011;2632;51.666;7.146;2022-08-25T04:58:40;4.90;;;4.37;;
5225;SDS011;2632;51.666;7.146;2022-08-25T05:01:11;6.80;;;4.20;;
5225;SDS011;2632;51.666;7.146;2022-08-25T05:03:43;6.97;;;4.67;;
5225;SDS011;2632;51.666;7.146;2022-08-25T05:06:12;6.07;;;4.10;;
5225;SDS011;2632;51.666;7.146;2022-08-25T05:08:41;4.40;;;3.93;;
5225;SDS011;2632;51.666;7.146;2022-08-25T05:11:12;4.33;;;3.90;;
5225;SDS011;2632;51.666;7.146;2022-08-25T05:13:41;4.17;;;3.70;;
5225;SDS011;2632;51.666;7.146;2022-08-25T05:16:07;6.60;;;4.77;;
5225;SDS011;2632;51.666;7.146;2022-08-25T05:18:36;5.33;;;4.63;;
5225;SDS011;2632;51.666;7.146;2022-08-25T05:21:04;5.70;;;3.83;;
5225;SDS011;2632;51.666;7.146;2022-08-25T05:23:39;5.60;;;4.10;;
5225;SDS011;2632;51.666;7.146;2022-08-25T05:26:11;4.20;;;3.80;;
5225;SDS011;2632;51.666;7.146;2022-08-25T05:28:46;4.27;;;3.87;;
5225;SDS011;2632;51.666;7.146;2022-08-25T05:31:16;4.90;;;4.40;;
5225;SDS011;2632;51.666;7.146;2022-08-25T05:33:45;6.63;;;4.00;;
5225;SDS011;2632;51.666;7.146;2022-08-25T05:36:12;4.60;;;3.90;;
5225;SDS011;2632;51.666;7.146;2022-08-25T05:38:41;7.60;;;4.13;;
5225;SDS011;2632;51.666;7.146;2022-08-25T05:41:12;5.67;;;4.67;;
5225;SDS011;2632;51.666;7.146;2022-08-25T05:43:44;5.47;;;4.77;;
5225;SDS011;2632;51.666;7.146;2022-08-25T05:46:13;5.20;;;4.17;;
5225;SDS011;2632;51.666;7.146;2022-08-25T05:48:41;5.20;;;4.10;;
5225;SDS011;2632;51.666;7.146;2022-08-25T05:51:09;3.93;;;3.50;;
5225;SDS011;2632;51.666;7.146;2022-08-25T05:53:37;5.30;;;3.87;;
5225;SDS011;2632;51.666;7.146;2022-08-25T05:56:06;4.30;;;3.90;;
5225;SDS011;2632;51.666;7.146;2022-08-25T05:58:34;5.60;;;3.87;;
5225;SDS011;2632;51.666;7.146;2022-08-25T06:01:02;5.13;;;4.20;;
5225;SDS011;2632;51.666;7.146;2022-08-25T06:03:48;7.70;;;4.20;;
5225;SDS011;2632;51.666;7.146;2022-08-25T06:06:18;4.60;;;4.20;;
5225;SDS011;2632;51.666;7.146;2022-08-25T06:08:46;4.73;;;3.73;;
5225;SDS011;2632;51.666;7.146;2022-08-25T06:11:13;5.73;;;4.37;;
5225;SDS011;2632;51.666;7.146;2022-08-25T06:13:41;5.60;;;4.23;;
5225;SDS011;2632;51.666;7.146;2022-08-25T06:16:08;5.93;;;4.60;;
5225;SDS011;2632;51.666;7.146;2022-08-25T06:18:35;3.93;;;3.53;;
5225;SDS011;2632;51.666;7.146;2022-08-25T06:21:08;5.37;;;4.30;;
5225;SDS011;2632;51.666;7.146;2022-08-25T06:23:38;7.20;;;4.20;;
5225;SDS011;2632;51.666;7.146;2022-08-25T06:26:05;5.00;;;3.97;;
5225;SDS011;2632;51.666;7.146;2022-08-25T06:28:38;7.30;;;4.70;;
5225;SDS011;2632;51.666;7.146;2022-08-25T06:31:05;4.37;;;3.90;;
5225;SDS011;2632;51.666;7.146;2022-08-25T06:33:32;9.87;;;4.27;;
5225;SDS011;2632;51.666;7.146;2022-08-25T06:35:59;4.50;;;4.07;;
5225;SDS011;2632;51.666;7.146;2022-08-25T06:38:26;7.10;;;3.90;;
5225;SDS011;2632;51.666;7.146;2022-08-25T06:40:53;8.40;;;4.40;;
5225;SDS011;2632;51.666;7.146;2022-08-25T06:43:22;12.53;;;4.53;;
5225;SDS011;2632;51.666;7.146;2022-08-25T06:45:49;5.40;;;4.03;;
5225;SDS011;2632;51.666;7.146;2022-08-25T06:48:16;5.13;;;4.53;;
5225;SDS011;2632;51.666;7.146;2022-08-25T06:50:42;5.50;;;4.40;;
5225;SDS011;2632;51.666;7.146;2022-08-25T06:53:10;6.30;;;4.83;;
5225;SDS011;2632;51.666;7.146;2022-08-25T06:55:37;4.30;;;3.90;;
5225;SDS011;2632;51.666;7.146;2022-08-25T06:58:04;4.83;;;3.90;;
5225;SDS011;2632;51.666;7.146;2022-08-25T07:00:36;6.60;;;4.30;;
5225;SDS011;2632;51.666;7.146;2022-08-25T07:03:03;4.57;;;3.80;;
5225;SDS011;2632;51.666;7.146;2022-08-25T07:05:32;5.97;;;4.00;;
5225;SDS011;2632;51.666;7.146;2022-08-25T07:08:08;7.73;;;4.23;;
5225;SDS011;2632;51.666;7.146;2022-08-25T07:10:37;10.93;;;4.47;;
5225;SDS011;2632;51.666;7.146;2022-08-25T07:13:03;6.37;;;4.43;;
5225;SDS011;2632;51.666;7.146;2022-08-25T07:15:30;5.60;;;4.30;;
5225;SDS011;2632;51.666;7.146;2022-08-25T07:17:57;7.70;;;4.90;;
5225;SDS011;2632;51.666;7.146;2022-08-25T07:20:24;7.70;;;4.43;;
5225;SDS011;2632;51.666;7.146;2022-08-25T07:22:56;7.17;;;4.77;;
5225;SDS011;2632;51.666;7.146;2022-08-25T07:25:23;7.93;;;4.07;;
5225;SDS011;2632;51.666;7.146;2022-08-25T07:27:49;7.67;;;5.40;;
5225;SDS011;2632;51.666;7.146;2022-08-25T07:30:20;8.90;;;4.03;;
5225;SDS011;2632;51.666;7.146;2022-08-25T07:32:48;6.07;;;4.20;;
5225;SDS011;2632;51.666;7.146;2022-08-25T07:35:20;5.33;;;4.40;;
5225;SDS011;2632;51.666;7.146;2022-08-25T07:37:52;5.37;;;4.87;;
5225;SDS011;2632;51.666;7.146;2022-08-25T07:42:55;11.60;;;4.70;;
5225;SDS011;2632;51.666;7.146;2022-08-25T07:45:25;5.73;;;4.07;;
5225;SDS011;2632;51.666;7.146;2022-08-25T07:47:57;6.03;;;4.33;;
5225;SDS011;2632;51.666;7.146;2022-08-25T07:50:26;9.73;;;4.80;;
5225;SDS011;2632;51.666;7.146;2022-08-25T07:52:55;6.03;;;4.20;;
5225;SDS011;2632;51.666;7.146;2022-08-25T07:55:22;5.10;;;4.20;;
5225;SDS011;2632;51.666;7.146;2022-08-25T07:57:52;6.63;;;4.90;;
5225;SDS011;2632;51.666;7.146;2022-08-25T08:00:22;5.60;;;4.50;;
5225;SDS011;2632;51.666;7.146;2022-08-25T08:02:53;5.57;;;4.50;;
5225;SDS011;2632;51.666;7.146;2022-08-25T08:05:19;5.47;;;4.30;;
5225;SDS011;2632;51.666;7.146;2022-08-25T08:07:49;5.33;;;4.47;;
5225;SDS011;2632;51.666;7.146;2022-08-25T08:10:16;6.57;;;4.73;;
5225;SDS011;2632;51.666;7.146;2022-08-25T08:13:03;7.80;;;4.90;;
5225;SDS011;2632;51.666;7.146;2022-08-25T08:15:33;6.77;;;4.47;;
5225;SDS011;2632;51.666;7.146;2022-08-25T08:18:00;6.50;;;4.60;;
5225;SDS011;2632;51.666;7.146;2022-08-25T08:20:28;5.17;;;4.67;;
5225;SDS011;2632;51.666;7.146;2022-08-25T08:23:08;7.07;;;4.40;;
5225;SDS011;2632;51.666;7.146;2022-08-25T08:25:35;5.93;;;4.27;;
5225;SDS011;2632;51.666;7.146;2022-08-25T08:28:02;4.73;;;4.00;;
5225;SDS011;2632;51.666;7.146;2022-08-25T08:30:32;6.43;;;3.80;;
5225;SDS011;2632;51.666;7.146;2022-08-25T08:33:00;5.90;;;3.50;;
5225;SDS011;2632;51.666;7.146;2022-08-25T08:35:37;5.23;;;4.27;;
5225;SDS011;2632;51.666;7.146;2022-08-25T08:38:04;7.20;;;3.57;;
5225;SDS011;2632;51.666;7.146;2022-08-25T08:40:44;4.70;;;3.70;;
5225;SDS011;2632;51.666;7.146;2022-08-25T08:43:48;5.00;;;3.90;;
5225;SDS011;2632;51.666;7.146;2022-08-25T08:46:30;9.33;;;4.00;;
5225;SDS011;2632;51.666;7.146;2022-08-25T08:49:26;5.53;;;4.10;;
5225;SDS011;2632;51.666;7.146;2022-08-25T08:52:04;5.20;;;3.40;;
5225;SDS011;2632;51.666;7.146;2022-08-25T08:54:35;7.80;;;4.37;;
5225;SDS011;2632;51.666;7.146;2022-08-25T08:57:13;6.87;;;4.20;;
5225;SDS011;2632;51.666;7.146;2022-08-25T08:59:45;5.30;;;3.87;;
5225;SDS011;2632;51.666;7.146;2022-08-25T09:02:21;6.20;;;3.67;;
5225;SDS011;2632;51.666;7.146;2022-08-25T09:05:13;6.00;;;3.73;;
5225;SDS011;2632;51.666;7.146;2022-08-25T09:07:46;3.40;;;3.10;;
5225;SDS011;2632;51.666;7.146;2022-08-25T09:10:20;6.60;;;3.40;;
5225;SDS011;2632;51.666;7.146;2022-08-25T09:13:05;7.77;;;3.63;;
5225;SDS011;2632;51.666;7.146;2022-08-25T09:22:14;5.37;;;3.80;;
5225;SDS011;2632;51.666;7.146;2022-08-25T09:25:10;4.47;;;3.43;;
5225;SDS011;2632;51.666;7.146;2022-08-25T09:28:06;4.70;;;3.30;;
5225;SDS011;2632;51.666;7.146;2022-08-25T09:30:53;3.70;;;3.40;;
5225;SDS011;2632;51.666;7.146;2022-08-25T09:33:30;4.17;;;2.87;;
5225;SDS011;2632;51.666;7.146;2022-08-25T09:36:00;4.90;;;3.20;;
5225;SDS011;2632;51.666;7.146;2022-08-25T09:38:31;4.53;;;3.10;;
5225;SDS011;2632;51.666;7.146;2022-08-25T09:40:59;4.47;;;3.30;;
5225;SDS011;2632;51.666;7.146;2022-08-25T09:43:51;4.33;;;3.70;;
5225;SDS011;2632;51.666;7.146;2022-08-25T09:46:23;4.33;;;3.43;;
5225;SDS011;2632;51.666;7.146;2022-08-25T09:48:53;3.93;;;3.33;;
5225;SDS011;2632;51.666;7.146;2022-08-25T09:54:02;3.40;;;3.10;;
5225;SDS011;2632;51.666;7.146;2022-08-25T09:56:36;3.87;;;3.47;;
5225;SDS011;2632;51.666;7.146;2022-08-25T09:59:21;3.93;;;2.90;;
5225;SDS011;2632;51.666;7.146;2022-08-25T10:02:22;3.87;;;3.23;;
5225;SDS011;2632;51.666;7.146;2022-08-25T10:04:53;7.20;;;3.30;;
5225;SDS011;2632;51.666;7.146;2022-08-25T10:07:29;3.37;;;2.77;;
5225;SDS011;2632;51.666;7.146;2022-08-25T10:10:01;3.70;;;3.20;;
5225;SDS011;2632;51.666;7.146;2022-08-25T10:12:41;3.90;;;3.17;;
5225;SDS011;2632;51.666;7.146;2022-08-25T10:15:20;5.93;;;3.47;;
5225;SDS011;2632;51.666;7.146;2022-08-25T10:17:56;3.07;;;2.77;;
5225;SDS011;2632;51.666;7.146;2022-08-25T10:20:42;6.30;;;3.10;;
5225;SDS011;2632;51.666;7.146;2022-08-25T10:23:11;3.90;;;3.17;;
5225;SDS011;2632;51.666;7.146;2022-08-25T10:25:45;6.93;;;3.10;;
5225;SDS011;2632;51.666;7.146;2022-08-25T10:28:32;5.80;;;3.20;;
5225;SDS011;2632;51.666;7.146;2022-08-25T10:38:41;4.30;;;3.90;;
5225;SDS011;2632;51.666;7.146;2022-08-25T10:55:56;242.33;;;65.43;;
5225;SDS011;2632;51.666;7.146;2022-08-25T11:04:20;146.13;;;45.00;;
5225;SDS011;2632;51.666;7.146;2022-08-25T11:06:54;149.77;;;49.30;;
5225;SDS011;2632;51.666;7.146;2022-08-25T11:09:38;140.90;;;44.97;;
5225;SDS011;2632;51.666;7.146;2022-08-25T11:12:09;122.77;;;39.07;;
5225;SDS011;2632;51.666;7.146;2022-08-25T11:14:38;105.97;;;31.60;;
5225;SDS011;2632;51.666;7.146;2022-08-25T11:20:16;101.57;;;29.83;;
5225;SDS011;2632;51.666;7.146;2022-08-25T11:22:54;84.43;;;28.17;;
5225;SDS011;2632;51.666;7.146;2022-08-25T11:25:42;81.97;;;26.37;;
5225;SDS011;2632;51.666;7.146;2022-08-25T11:31:08;73.77;;;25.33;;
5225;SDS011;2632;51.666;7.146;2022-08-25T11:33:35;76.27;;;25.97;;
5225;SDS011;2632;51.666;7.146;2022-08-25T11:36:09;76.63;;;23.13;;
5225;SDS011;2632;51.666;7.146;2022-08-25T11:39:17;63.50;;;22.07;;
5225;SDS011;2632;51.666;7.146;2022-08-25T11:47:08;60.57;;;20.20;;
5225;SDS011;2632;51.666;7.146;2022-08-25T11:55:12;59.40;;;20.47;;
5225;SDS011;2632;51.666;7.146;2022-08-25T11:57:48;53.80;;;19.33;;
5225;SDS011;2632;51.666;7.146;2022-08-25T12:03:44;48.43;;;17.17;;
5225;SDS011;2632;51.666;7.146;2022-08-25T12:19:25;47.27;;;14.33;;
5225;SDS011;2632;51.666;7.146;2022-08-25T12:22:38;50.17;;;14.17;;
5225;SDS011;2632;51.666;7.146;2022-08-25T12:38:42;38.27;;;12.23;;
5225;SDS011;2632;51.666;7.146;2022-08-25T12:43:50;37.07;;;13.80;;
5225;SDS011;2632;51.666;7.146;2022-08-25T12:48:57;35.20;;;11.37;;
5225;SDS011;2632;51.666;7.146;2022-08-25T12:51:55;42.00;;;13.10;;
5225;SDS011;2632;51.666;7.146;2022-08-25T12:54:38;33.43;;;11.77;;
5225;SDS011;2632;51.666;7.146;2022-08-25T12:57:35;33.00;;;11.10;;
5225;SDS011;2632;51.666;7.146;2022-08-25T13:05:42;27.77;;;10.70;;
5225;SDS011;2632;51.666;7.146;2022-08-25T13:11:14;34.63;;;10.47;;
5225;SDS011;2632;51.666;7.146;2022-08-25T13:14:03;34.50;;;11.67;;
5225;SDS011;2632;51.666;7.146;2022-08-25T13:16:56;33.93;;;11.60;;
5225;SDS011;2632;51.666;7.146;2022-08-25T13:19:24;29.43;;;11.10;;
5225;SDS011;2632;51.666;7.146;2022-08-25T13:22:01;28.93;;;10.03;;
5225;SDS011;2632;51.666;7.146;2022-08-25T13:24:42;36.30;;;10.67;;
5225;SDS011;2632;51.666;7.146;2022-08-25T13:27:25;32.77;;;10.60;;
5225;SDS011;2632;51.666;7.146;2022-08-25T13:29:54;31.33;;;10.07;;
5225;SDS011;2632;51.666;7.146;2022-08-25T13:32:27;29.33;;;10.23;;
5225;SDS011;2632;51.666;7.146;2022-08-25T13:35:11;26.07;;;9.40;;
5225;SDS011;2632;51.666;7.146;2022-08-25T13:37:45;27.10;;;9.00;;
5225;SDS011;2632;51.666;7.146;2022-08-25T13:40:20;20.97;;;8.20;;
5225;SDS011;2632;51.666;7.146;2022-08-25T13:42:58;29.37;;;9.67;;
5225;SDS011;2632;51.666;7.146;2022-08-25T13:45:31;23.30;;;9.37;;
5225;SDS011;2632;51.666;7.146;2022-08-25T13:48:06;32.23;;;8.03;;
5225;SDS011;2632;51.666;7.146;2022-08-25T13:50:51;27.40;;;8.80;;
5225;SDS011;2632;51.666;7.146;2022-08-25T13:53:22;23.33;;;8.27;;
5225;SDS011;2632;51.666;7.146;2022-08-25T13:55:57;22.77;;;7.70;;
5225;SDS011;2632;51.666;7.146;2022-08-25T14:01:14;22.10;;;8.07;;
5225;SDS011;2632;51.666;7.146;2022-08-25T14:07:05;19.30;;;7.80;;
5225;SDS011;2632;51.666;7.146;2022-08-25T14:17:44;24.37;;;7.23;;
5225;SDS011;2632;51.666;7.146;2022-08-25T14:20:22;19.70;;;7.70;;
5225;SDS011;2632;51.666;7.146;2022-08-25T14:22:57;19.03;;;8.20;;
5225;SDS011;2632;51.666;7.146;2022-08-25T14:25:30;17.73;;;6.97;;
5225;SDS011;2632;51.666;7.146;2022-08-25T14:28:01;22.47;;;7.40;;
5225;SDS011;2632;51.666;7.146;2022-08-25T14:30:33;16.90;;;7.00;;
5225;SDS011;2632;51.666;7.146;2022-08-25T14:33:04;15.80;;;6.47;;
5225;SDS011;2632;51.666;7.146;2022-08-25T14:35:32;19.20;;;6.53;;
5225;SDS011;2632;51.666;7.146;2022-08-25T14:38:02;11.03;;;5.87;;
5225;SDS011;2632;51.666;7.146;2022-08-25T14:40:35;13.73;;;6.17;;
5225;SDS011;2632;51.666;7.146;2022-08-25T14:43:02;16.53;;;6.30;;
5225;SDS011;2632;51.666;7.146;2022-08-25T14:45:29;13.70;;;5.37;;
5225;SDS011;2632;51.666;7.146;2022-08-25T14:47:58;13.40;;;5.80;;
5225;SDS011;2632;51.666;7.146;2022-08-25T14:50:35;16.27;;;6.33;;
5225;SDS011;2632;51.666;7.146;2022-08-25T14:53:06;12.30;;;5.70;;
5225;SDS011;2632;51.666;7.146;2022-08-25T14:55:33;15.40;;;6.20;;
5225;SDS011;2632;51.666;7.146;2022-08-25T14:58:00;15.27;;;5.97;;
5225;SDS011;2632;51.666;7.146;2022-08-25T15:00:27;12.73;;;5.60;;
5225;SDS011;2632;51.666;7.146;2022-08-25T15:02:57;15.00;;;5.60;;
5225;SDS011;2632;51.666;7.146;2022-08-25T15:05:34;12.20;;;4.50;;
5225;SDS011;2632;51.666;7.146;2022-08-25T15:08:02;11.07;;;4.87;;
5225;SDS011;2632;51.666;7.146;2022-08-25T15:10:47;12.77;;;5.80;;
5225;SDS011;2632;51.666;7.146;2022-08-25T15:13:14;9.73;;;5.13;;
5225;SDS011;2632;51.666;7.146;2022-08-25T15:15:42;13.57;;;5.07;;
5225;SDS011;2632;51.666;7.146;2022-08-25T15:18:18;11.17;;;4.80;;
5225;SDS011;2632;51.666;7.146;2022-08-25T15:20:46;9.77;;;5.07;;
5225;SDS011;2632;51.666;7.146;2022-08-25T15:23:15;9.90;;;4.80;;
5225;SDS011;2632;51.666;7.146;2022-08-25T15:25:44;19.13;;;4.77;;
5225;SDS011;2632;51.666;7.146;2022-08-25T15:28:12;9.60;;;4.30;;
5225;SDS011;2632;51.666;7.146;2022-08-25T15:30:42;18.97;;;5.90;;
5225;SDS011;2632;51.666;7.146;2022-08-25T15:33:11;17.00;;;5.33;;
5225;SDS011;2632;51.666;7.146;2022-08-25T15:35:38;9.30;;;4.40;;
5225;SDS011;2632;51.666;7.146;2022-08-25T15:38:06;13.87;;;4.47;;
5225;SDS011;2632;51.666;7.146;2022-08-25T15:40:33;11.57;;;4.70;;
5225;SDS011;2632;51.666;7.146;2022-08-25T15:43:02;10.30;;;4.83;;
5225;SDS011;2632;51.666;7.146;2022-08-25T15:45:29;7.80;;;3.97;;
5225;SDS011;2632;51.666;7.146;2022-08-25T15:47:56;13.13;;;5.30;;
5225;SDS011;2632;51.666;7.146;2022-08-25T15:50:23;11.03;;;4.50;;
5225;SDS011;2632;51.666;7.146;2022-08-25T15:52:51;10.00;;;4.37;;
5225;SDS011;2632;51.666;7.146;2022-08-25T15:55:18;11.00;;;4.60;;
5225;SDS011;2632;51.666;7.146;2022-08-25T15:57:46;12.63;;;5.77;;
5225;SDS011;2632;51.666;7.146;2022-08-25T16:00:15;7.47;;;4.47;;
5225;SDS011;2632;51.666;7.146;2022-08-25T16:02:43;6.83;;;4.17;;
5225;SDS011;2632;51.666;7.146;2022-08-25T16:05:11;8.27;;;3.87;;
5225;SDS011;2632;51.666;7.146;2022-08-25T16:07:41;11.77;;;4.10;;
5225;SDS011;2632;51.666;7.146;2022-08-25T16:10:08;8.87;;;4.00;;
5225;SDS011;2632;51.666;7.146;2022-08-25T16:12:36;7.20;;;3.70;;
5225;SDS011;2632;51.666;7.146;2022-08-25T16:15:07;8.10;;;3.90;;
5225;SDS011;2632;51.666;7.146;2022-08-25T16:17:37;6.57;;;3.80;;
5225;SDS011;2632;51.666;7.146;2022-08-25T16:20:09;7.73;;;3.70;;
5225;SDS011;2632;51.666;7.146;2022-08-25T16:22:39;5.87;;;3.50;;
5225;SDS011;2632;51.666;7.146;2022-08-25T16:27:42;5.23;;;3.17;;
5225;SDS011;2632;51.666;7.146;2022-08-25T16:30:10;5.50;;;3.33;;
5225;SDS011;2632;51.666;7.146;2022-08-25T16:32:42;8.87;;;3.73;;
5225;SDS011;2632;51.666;7.146;2022-08-25T16:35:10;5.97;;;4.10;;
5225;SDS011;2632;51.666;7.146;2022-08-25T16:37:38;5.37;;;3.37;;
5225;SDS011;2632;51.666;7.146;2022-08-25T16:40:05;8.43;;;3.40;;
5225;SDS011;2632;51.666;7.146;2022-08-25T16:42:33;6.73;;;3.67;;
5225;SDS011;2632;51.666;7.146;2022-08-25T16:45:00;7.47;;;3.60;;
5225;SDS011;2632;51.666;7.146;2022-08-25T16:47:30;8.20;;;4.10;;
5225;SDS011;2632;51.666;7.146;2022-08-25T16:50:04;6.20;;;3.60;;
5225;SDS011;2632;51.666;7.146;2022-08-25T16:52:31;5.53;;;3.30;;
5225;SDS011;2632;51.666;7.146;2022-08-25T16:55:17;4.33;;;3.07;;
5225;SDS011;2632;51.666;7.146;2022-08-25T16:57:45;5.50;;;3.90;;
5225;SDS011;2632;51.666;7.146;2022-08-25T17:00:16;4.70;;;3.20;;
5225;SDS011;2632;51.666;7.146;2022-08-25T17:02:45;6.80;;;4.07;;
5225;SDS011;2632;51.666;7.146;2022-08-25T17:05:13;6.57;;;3.90;;
5225;SDS011;2632;51.666;7.146;2022-08-25T17:07:40;7.33;;;3.30;;
5225;SDS011;2632;51.666;7.146;2022-08-25T17:10:07;15.53;;;3.63;;
5225;SDS011;2632;51.666;7.146;2022-08-25T17:12:38;4.00;;;2.63;;
5225;SDS011;2632;51.666;7.146;2022-08-25T17:15:05;6.60;;;3.43;;
5225;SDS011;2632;51.666;7.146;2022-08-25T17:17:32;3.80;;;2.73;;
5225;SDS011;2632;51.666;7.146;2022-08-25T17:20:02;3.73;;;3.10;;
5225;SDS011;2632;51.666;7.146;2022-08-25T17:22:30;4.43;;;3.00;;
5225;SDS011;2632;51.666;7.146;2022-08-25T17:24:57;3.70;;;2.33;;
5225;SDS011;2632;51.666;7.146;2022-08-25T17:27:26;3.83;;;2.50;;
5225;SDS011;2632;51.666;7.146;2022-08-25T17:29:53;8.30;;;2.57;;
5225;SDS011;2632;51.666;7.146;2022-08-25T17:32:21;3.77;;;2.73;;
5225;SDS011;2632;51.666;7.146;2022-08-25T17:34:55;6.17;;;2.70;;
5225;SDS011;2632;51.666;7.146;2022-08-25T17:37:22;5.30;;;3.07;;
5225;SDS011;2632;51.666;7.146;2022-08-25T17:39:50;3.47;;;2.40;;